TimeEDT,TemperatureF,Dew PointF,Humidity,Sea Level PressureIn,VisibilityMPH,Wind Direction,Wind SpeedMPH,Gust SpeedMPH,PrecipitationIn,Events,Conditions,WindDirDegrees,DateUTC
12:00 AM,60.4,55.9,85,30.10,-9999.0,SSW,3.5,-,N/A,,Unknown,210,2012-10-04 04:00:00
1:00 AM,60.1,55.8,86,30.10,-9999.0,SSW,5.8,-,N/A,,Unknown,210,2012-10-04 05:00:00
2:00 AM,60,56,81,30.10,,SSW,4.6,,,,,200,2012-10-04 06:00:00
2:00 AM,59.9,55.8,86,30.10,-9999.0,SSW,4.6,-,N/A,,Unknown,200,2012-10-04 06:00:00
3:00 AM,59.9,55.4,85,30.09,-9999.0,SSW,5.8,-,N/A,,Unknown,210,2012-10-04 07:00:00
4:00 AM,59.9,55.4,85,30.08,-9999.0,SSW,5.8,-,N/A,,Unknown,200,2012-10-04 08:00:00
5:00 AM,61.2,57.2,87,30.08,-9999.0,South,5.8,-,N/A,,Unknown,190,2012-10-04 09:00:00
6:00 AM,61.9,57.2,85,30.07,-9999.0,SSW,8.1,-,N/A,,Unknown,200,2012-10-04 10:00:00
7:00 AM,61.7,57.4,86,30.08,-9999.0,SSW,6.9,-,N/A,,Unknown,200,2012-10-04 11:00:00
8:00 AM,62,57,79,30.07,,SSW,9.2,,,,,210,2012-10-04 12:00:00
8:00 AM,61.9,57.2,85,30.07,-9999.0,SSW,9.2,-,N/A,,Unknown,210,2012-10-04 12:00:00
9:00 AM,63.3,57.0,80,30.06,-9999.0,SSW,9.2,-,N/A,,Unknown,210,2012-10-04 13:00:00
10:00 AM,65.1,57.4,76,30.06,-9999.0,SW,8.1,-,N/A,,Unknown,220,2012-10-04 14:00:00
11:00 AM,69.1,56.3,64,30.05,-9999.0,SW,12.7,19.6,N/A,,Unknown,220,2012-10-04 15:00:00
12:00 PM,72.3,55.9,56,30.04,-9999.0,WSW,11.5,18.4,N/A,,Unknown,240,2012-10-04 16:00:00
1:00 PM,72.9,54.5,52,30.03,-9999.0,WSW,15.0,20.7,N/A,,Unknown,240,2012-10-04 17:00:00
2:00 PM,74,56,43,30.01,,WSW,13.8,,,,,240,2012-10-04 18:00:00
2:00 PM,73.6,56.1,54,30.01,-9999.0,WSW,13.8,24.2,N/A,,Unknown,240,2012-10-04 18:00:00
3:00 PM,73.2,53.4,50,30.00,-9999.0,WSW,18.4,26.5,N/A,,Unknown,240,2012-10-04 19:00:00
4:00 PM,72.3,52.5,50,29.99,-9999.0,WSW,19.6,27.6,N/A,,Unknown,240,2012-10-04 20:00:00
5:00 PM,71.4,50.2,47,29.97,-9999.0,SW,17.3,29.9,N/A,,Unknown,230,2012-10-04 21:00:00
6:00 PM,69.1,54.0,58,29.99,-9999.0,WSW,12.7,18.4,N/A,,Unknown,240,2012-10-04 22:00:00
7:00 PM,66.7,52.9,61,30.00,-9999.0,WSW,11.5,-,N/A,,Unknown,240,2012-10-04 23:00:00
8:00 PM,65,52,54,30.00,,SW,8.1,,,,,230,2012-10-05 00:00:00
8:00 PM,64.9,52.3,64,30.00,-9999.0,SW,8.1,-,N/A,,Unknown,230,2012-10-05 00:00:00
9:00 PM,64.0,51.1,63,30.01,-9999.0,WSW,9.2,-,N/A,,Unknown,240,2012-10-05 01:00:00
10:00 PM,63.5,50.4,62,30.00,-9999.0,WSW,11.5,-,N/A,,Unknown,240,2012-10-05 02:00:00
11:00 PM,62.2,51.1,67,29.99,-9999.0,SW,9.2,-,N/A,,Unknown,220,2012-10-05 03:00:00